Time;durP1;ratioP1;P1;durP2;ratioP2;P2;SDS_P1;SDS_P2;PMS_P1;PMS_P2;Temp;Humidity;BMP_temperature;BMP_pressure;BME280_temperature;BME280_humidity;BME280_pressure;Samples;Min_cycle;Max_cycle;Signal;HPM_P1;HPM_P2
2023/06/01 00:01:38;;;;;;;8.15;7.35;;;;;;;;;;5052642;28;20079;-63
2023/06/01 00:04:05;;;;;;;9.60;7.18;;;;;;;;;;5055389;28;20056;-62
2023/06/01 00:06:31;;;;;;;8.10;7.40;;;;;;;;;;5054901;28;20057;-62
2023/06/01 00:08:58;;;;;;;8.40;7.60;;;;;;;;;;5055085;28;20055;-63
2023/06/01 00:11:25;;;;;;;8.90;7.68;;;;;;;;;;5054857;28;20045;-63
2023/06/01 00:13:52;;;;;;;9.10;7.28;;;;;;;;;;5055078;28;20055;-62
2023/06/01 00:16:19;;;;;;;8.68;7.75;;;;;;;;;;5055045;28;20049;-62
2023/06/01 00:18:45;;;;;;;9.18;8.23;;;;;;;;;;5054815;28;20052;-63
2023/06/01 00:21:12;;;;;;;9.07;7.38;;;;;;;;;;5054632;28;20052;-62
2023/06/01 00:23:41;;;;;;;10.02;8.23;;;;;;;;;;5054407;28;20060;-62
2023/06/01 00:26:07;;;;;;;9.65;8.70;;;;;;;;;;5054528;28;20136;-62
2023/06/01 00:28:34;;;;;;;9.52;8.63;;;;;;;;;;5054903;28;20053;-63
2023/06/01 00:31:00;;;;;;;9.52;8.60;;;;;;;;;;5054733;28;20049;-63
2023/06/01 00:33:27;;;;;;;9.70;8.70;;;;;;;;;;5054500;28;20045;-63
2023/06/01 00:35:54;;;;;;;8.82;7.93;;;;;;;;;;5054472;28;20627;-63
2023/06/01 00:38:20;;;;;;;9.43;8.45;;;;;;;;;;5054594;28;20045;-62
2023/06/01 00:40:50;;;;;;;9.88;8.88;;;;;;;;;;5054644;28;20053;-63
2023/06/01 00:43:18;;;;;;;12.05;9.38;;;;;;;;;;5054611;28;20045;-62
2023/06/01 00:45:44;;;;;;;8.93;8.02;;;;;;;;;;5054246;28;20052;-62
2023/06/01 00:48:11;;;;;;;8.63;7.63;;;;;;;;;;5054268;28;20053;-63
2023/06/01 00:50:37;;;;;;;8.43;7.67;;;;;;;;;;5054509;28;20060;-62
2023/06/01 00:53:06;;;;;;;8.20;7.40;;;;;;;;;;5054291;28;20649;-62
2023/06/01 00:55:33;;;;;;;8.20;7.25;;;;;;;;;;5054306;28;20045;-62
2023/06/01 00:58:00;;;;;;;7.50;6.80;;;;;;;;;;5054104;28;20083;-63
2023/06/01 01:00:28;;;;;;;6.90;6.30;;;;;;;;;;5053833;28;20052;-62
2023/06/01 01:02:56;;;;;;;8.32;7.53;;;;;;;;;;5053907;28;20052;-63
2023/06/01 01:05:26;;;;;;;7.32;6.55;;;;;;;;;;5053737;28;20045;-63
2023/06/01 01:08:11;;;;;;;7.00;6.40;;;;;;;;;;5054058;28;20386;-62
2023/06/01 01:10:43;;;;;;;7.20;6.47;;;;;;;;;;5049758;28;20064;-62
2023/06/01 01:13:12;;;;;;;6.47;5.97;;;;;;;;;;5052836;28;20047;-62
2023/06/01 01:15:54;;;;;;;6.40;5.68;;;;;;;;;;5053951;28;20080;-63
2023/06/01 01:18:39;;;;;;;6.20;5.60;;;;;;;;;;5053650;28;20061;-62
2023/06/01 01:21:22;;;;;;;5.15;4.72;;;;;;;;;;5053553;28;20045;-62
2023/06/01 01:23:49;;;;;;;5.63;5.07;;;;;;;;;;5053593;28;20045;-63
2023/06/01 01:26:27;;;;;;;5.72;5.22;;;;;;;;;;5053436;28;20102;-62
2023/06/01 01:28:59;;;;;;;5.53;5.03;;;;;;;;;;5053477;28;20052;-62
2023/06/01 01:31:28;;;;;;;5.90;5.25;;;;;;;;;;5053563;28;20120;-62
2023/06/01 01:33:55;;;;;;;5.82;5.22;;;;;;;;;;5053531;28;20478;-63
2023/06/01 01:36:22;;;;;;;5.93;5.07;;;;;;;;;;5053354;28;20132;-63
2023/06/01 01:38:49;;;;;;;5.87;5.30;;;;;;;;;;5053539;28;20049;-62
2023/06/01 01:41:15;;;;;;;6.15;5.50;;;;;;;;;;5053465;28;20278;-63
2023/06/01 01:43:42;;;;;;;6.05;5.50;;;;;;;;;;5053440;28;20488;-62
2023/06/01 01:46:20;;;;;;;6.72;6.10;;;;;;;;;;5053088;28;20048;-62
2023/06/01 01:48:50;;;;;;;7.20;6.50;;;;;;;;;;5053396;28;20056;-62
2023/06/01 01:51:20;;;;;;;7.10;6.40;;;;;;;;;;5053458;28;20071;-62
2023/06/01 01:53:48;;;;;;;6.85;6.15;;;;;;;;;;5053337;28;20041;-63
2023/06/01 01:56:15;;;;;;;7.05;5.97;;;;;;;;;;5053192;28;20488;-62
2023/06/01 01:58:42;;;;;;;6.70;6.10;;;;;;;;;;5052985;28;20048;-62
2023/06/01 02:01:08;;;;;;;6.50;6.00;;;;;;;;;;5052735;28;20057;-62
2023/06/01 02:03:35;;;;;;;6.32;5.63;;;;;;;;;;5052918;28;20052;-62
2023/06/01 02:06:02;;;;;;;5.93;5.37;;;;;;;;;;5052713;28;20496;-62
2023/06/01 02:08:28;;;;;;;5.68;5.18;;;;;;;;;;5052611;28;20040;-63
2023/06/01 02:10:55;;;;;;;5.30;4.80;;;;;;;;;;5052979;28;20377;-62
2023/06/01 02:13:21;;;;;;;5.75;5.13;;;;;;;;;;5052580;28;20057;-62
2023/06/01 02:15:48;;;;;;;6.13;5.20;;;;;;;;;;5052789;28;20405;-63
2023/06/01 02:18:17;;;;;;;5.97;4.63;;;;;;;;;;5052720;28;20053;-62
2023/06/01 02:20:45;;;;;;;6.20;5.35;;;;;;;;;;5052382;28;20127;-62
2023/06/01 02:23:11;;;;;;;8.68;5.43;;;;;;;;;;5052465;28;20057;-62
2023/06/01 02:25:38;;;;;;;9.15;6.20;;;;;;;;;;5050941;28;20053;-62
2023/06/01 02:28:04;;;;;;;7.03;6.20;;;;;;;;;;5052316;28;20056;-62
2023/06/01 02:30:30;;;;;;;8.10;6.15;;;;;;;;;;5052302;28;20053;-62
2023/06/01 02:32:58;;;;;;;7.05;6.35;;;;;;;;;;5052217;28;20049;-63
2023/06/01 02:35:25;;;;;;;7.07;6.38;;;;;;;;;;5052212;28;20076;-62
2023/06/01 02:37:51;;;;;;;7.65;6.60;;;;;;;;;;5052157;28;20044;-62
2023/06/01 02:40:18;;;;;;;7.45;6.28;;;;;;;;;;5052078;28;20488;-62
2023/06/01 02:42:44;;;;;;;7.25;6.50;;;;;;;;;;5052283;28;20059;-62
2023/06/01 02:45:10;;;;;;;9.20;6.70;;;;;;;;;;5052356;28;20122;-62
2023/06/01 02:47:37;;;;;;;7.68;6.45;;;;;;;;;;5051928;28;20053;-62
2023/06/01 02:50:05;;;;;;;7.25;6.20;;;;;;;;;;5052208;28;20143;-62
2023/06/01 02:52:31;;;;;;;7.50;6.70;;;;;;;;;;5051966;28;20045;-62
2023/06/01 02:54:57;;;;;;;8.65;7.05;;;;;;;;;;5051911;28;20041;-63
2023/06/01 02:57:24;;;;;;;6.63;5.95;;;;;;;;;;5051852;28;20049;-62
2023/06/01 02:59:50;;;;;;;7.90;6.70;;;;;;;;;;5051572;28;20052;-63
2023/06/01 03:02:17;;;;;;;8.75;6.85;;;;;;;;;;5051762;28;20508;-62
2023/06/01 03:04:45;;;;;;;6.82;6.10;;;;;;;;;;5051947;28;20048;-62
2023/06/01 03:07:12;;;;;;;7.72;6.88;;;;;;;;;;5051648;28;20508;-62
2023/06/01 03:09:39;;;;;;;6.50;5.90;;;;;;;;;;5051904;28;20061;-63
2023/06/01 03:12:06;;;;;;;7.47;5.97;;;;;;;;;;5051997;28;20045;-62
2023/06/01 03:14:32;;;;;;;7.97;6.17;;;;;;;;;;5051568;28;20049;-62
2023/06/01 03:16:59;;;;;;;7.95;5.68;;;;;;;;;;5051748;28;20280;-63
2023/06/01 03:19:25;;;;;;;7.53;6.40;;;;;;;;;;5051917;28;20435;-62
2023/06/01 03:21:52;;;;;;;11.00;6.75;;;;;;;;;;5051560;28;20041;-62
2023/06/01 03:24:18;;;;;;;7.93;5.65;;;;;;;;;;5051631;28;20056;-63
2023/06/01 03:26:45;;;;;;;6.47;5.88;;;;;;;;;;5051838;28;20484;-62
2023/06/01 03:29:11;;;;;;;6.15;5.55;;;;;;;;;;5051343;28;20052;-62
2023/06/01 03:31:38;;;;;;;8.45;6.10;;;;;;;;;;5051438;28;20048;-63
2023/06/01 03:34:04;;;;;;;7.10;5.82;;;;;;;;;;5051309;28;20085;-63
2023/06/01 03:36:32;;;;;;;6.95;5.75;;;;;;;;;;5053183;28;20061;-62
2023/06/01 03:38:59;;;;;;;6.72;5.78;;;;;;;;;;5055642;28;20056;-63
2023/06/01 03:41:25;;;;;;;5.90;5.07;;;;;;;;;;5055910;28;20057;-62
2023/06/01 03:43:52;;;;;;;6.45;5.80;;;;;;;;;;5055459;28;20059;-62
2023/06/01 03:46:18;;;;;;;6.88;5.30;;;;;;;;;;5055351;28;20048;-62
2023/06/01 03:48:45;;;;;;;7.30;5.65;;;;;;;;;;5055545;28;20138;-62
2023/06/01 03:51:11;;;;;;;7.22;6.32;;;;;;;;;;5055514;28;20053;-62
2023/06/01 03:53:38;;;;;;;8.63;6.93;;;;;;;;;;5055192;28;20496;-62
2023/06/01 03:56:05;;;;;;;6.90;6.20;;;;;;;;;;5055102;28;20520;-62
2023/06/01 03:58:31;;;;;;;8.32;6.63;;;;;;;;;;5055117;28;20056;-62
2023/06/01 04:00:58;;;;;;;7.57;6.00;;;;;;;;;;5055009;28;20056;-62
2023/06/01 04:03:26;;;;;;;8.68;6.57;;;;;;;;;;5055062;28;20053;-62
2023/06/01 04:05:58;;;;;;;10.25;7.32;;;;;;;;;;5055260;28;20049;-62
2023/06/01 04:08:26;;;;;;;9.02;6.68;;;;;;;;;;5055042;28;20049;-62
2023/06/01 04:10:52;;;;;;;7.93;6.57;;;;;;;;;;5055214;28;20418;-62
2023/06/01 04:13:19;;;;;;;7.35;6.63;;;;;;;;;;5054820;28;20155;-62
2023/06/01 04:15:46;;;;;;;6.85;6.15;;;;;;;;;;5054777;28;20095;-62
2023/06/01 04:18:13;;;;;;;7.97;6.80;;;;;;;;;;5054779;28;20045;-63
2023/06/01 04:20:40;;;;;;;7.07;6.43;;;;;;;;;;5055017;28;20045;-62
2023/06/01 04:23:06;;;;;;;7.50;6.65;;;;;;;;;;5055169;28;20055;-63
2023/06/01 04:25:33;;;;;;;7.55;6.63;;;;;;;;;;5054883;28;20114;-62
2023/06/01 04:27:59;;;;;;;8.80;6.20;;;;;;;;;;5054679;28;20053;-63
2023/06/01 04:30:26;;;;;;;7.20;6.47;;;;;;;;;;5054500;28;20102;-62
2023/06/01 04:32:53;;;;;;;7.38;6.43;;;;;;;;;;5054586;28;20404;-62
2023/06/01 04:35:20;;;;;;;;;;;;;;;;;;5055275;28;20404;-63
2023/06/01 04:37:46;;;;;;;6.88;6.18;;;;;;;;;;5054402;28;19921;-62
2023/06/01 04:40:13;;;;;;;8.88;6.53;;;;;;;;;;5054425;28;20428;-63
2023/06/01 04:42:42;;;;;;;7.47;6.75;;;;;;;;;;5054794;28;20053;-62
2023/06/01 04:45:11;;;;;;;9.30;6.72;;;;;;;;;;5054331;28;20084;-62
2023/06/01 04:47:39;;;;;;;8.55;6.97;;;;;;;;;;5052982;28;20133;-62
2023/06/01 04:50:06;;;;;;;;;;;;;;;;;;5054804;28;20087;-62
2023/06/01 04:52:32;;;;;;;8.88;6.97;;;;;;;;;;5053955;28;19971;-62
2023/06/01 04:54:59;;;;;;;7.80;6.90;;;;;;;;;;5054416;28;20048;-63
2023/06/01 04:57:25;;;;;;;7.68;6.60;;;;;;;;;;5054336;28;20048;-62
2023/06/01 04:59:56;;;;;;;10.35;6.90;;;;;;;;;;5054046;28;20045;-63
2023/06/01 05:02:24;;;;;;;8.82;7.00;;;;;;;;;;5054084;28;20041;-62
2023/06/01 05:04:51;;;;;;;;;;;;;;;;;;5054258;28;20045;-63
2023/06/01 05:07:17;;;;;;;9.88;6.95;;;;;;;;;;5054092;28;19921;-62
2023/06/01 05:09:43;;;;;;;13.45;7.03;;;;;;;;;;5053791;28;20052;-63
2023/06/01 05:12:10;;;;;;;10.75;7.18;;;;;;;;;;5053829;28;20041;-62
2023/06/01 05:14:36;;;;;;;8.40;6.75;;;;;;;;;;5053636;28;20056;-63
2023/06/01 05:17:03;;;;;;;9.30;7.25;;;;;;;;;;5053783;28;20106;-61
2023/06/01 05:19:29;;;;;;;8.73;6.90;;;;;;;;;;5053646;28;20052;-62
2023/06/01 05:21:56;;;;;;;9.63;7.30;;;;;;;;;;5053671;28;20056;-62
2023/06/01 05:24:22;;;;;;;8.10;7.00;;;;;;;;;;5053906;28;20049;-63
2023/06/01 05:26:49;;;;;;;9.73;7.28;;;;;;;;;;5053669;28;20107;-63
2023/06/01 05:29:15;;;;;;;10.15;7.22;;;;;;;;;;5053730;28;20036;-62
2023/06/01 05:31:42;;;;;;;9.27;7.07;;;;;;;;;;5053512;28;20056;-63
2023/06/01 05:34:08;;;;;;;8.88;7.00;;;;;;;;;;5053226;28;20041;-62
2023/06/01 05:36:35;;;;;;;9.23;7.28;;;;;;;;;;5053447;28;20052;-62
2023/06/01 05:39:01;;;;;;;8.05;6.63;;;;;;;;;;5053426;28;20057;-62
2023/06/01 05:41:28;;;;;;;9.32;6.80;;;;;;;;;;5053569;28;20416;-63
2023/06/01 05:43:54;;;;;;;8.77;7.63;;;;;;;;;;5053715;28;20049;-65
2023/06/01 05:46:21;;;;;;;9.25;7.25;;;;;;;;;;5053450;28;20076;-65
2023/06/01 05:48:48;;;;;;;10.82;7.90;;;;;;;;;;5053075;28;20046;-64
2023/06/01 05:51:14;;;;;;;7.72;6.35;;;;;;;;;;5053300;28;20049;-64
2023/06/01 05:53:41;;;;;;;7.53;6.68;;;;;;;;;;5053159;28;20083;-65
2023/06/01 05:56:07;;;;;;;8.38;7.38;;;;;;;;;;5053068;28;20053;-63
2023/06/01 05:58:34;;;;;;;8.20;6.70;;;;;;;;;;5053028;28;20041;-62
2023/06/01 06:01:00;;;;;;;8.57;7.00;;;;;;;;;;5052731;28;20049;-63
2023/06/01 06:03:28;;;;;;;8.48;7.03;;;;;;;;;;5052724;28;20049;-62
2023/06/01 06:05:55;;;;;;;7.43;6.60;;;;;;;;;;5053016;28;20114;-62
2023/06/01 06:08:21;;;;;;;9.73;7.60;;;;;;;;;;5052754;28;20061;-63
2023/06/01 06:10:48;;;;;;;8.05;7.15;;;;;;;;;;5052787;28;20386;-62
2023/06/01 06:13:14;;;;;;;8.65;7.32;;;;;;;;;;5052579;28;20051;-62
2023/06/01 06:15:41;;;;;;;9.98;8.05;;;;;;;;;;5052625;28;20057;-62
2023/06/01 06:18:07;;;;;;;8.48;7.10;;;;;;;;;;5052802;28;20052;-63
2023/06/01 06:20:34;;;;;;;8.57;7.28;;;;;;;;;;5052740;28;20044;-63
2023/06/01 06:23:00;;;;;;;9.48;7.55;;;;;;;;;;5052489;28;20053;-63
2023/06/01 06:25:27;;;;;;;8.98;7.68;;;;;;;;;;5052578;28;20045;-63
2023/06/01 06:27:53;;;;;;;9.77;7.22;;;;;;;;;;5052317;28;20060;-63
2023/06/01 06:30:20;;;;;;;9.88;8.13;;;;;;;;;;5052494;28;20049;-63
2023/06/01 06:32:47;;;;;;;9.82;7.93;;;;;;;;;;5052588;28;20045;-62
2023/06/01 06:35:13;;;;;;;8.43;7.53;;;;;;;;;;5052582;28;20064;-63
2023/06/01 06:37:41;;;;;;;9.75;7.80;;;;;;;;;;5052309;28;20049;-63
2023/06/01 06:40:08;;;;;;;9.85;7.95;;;;;;;;;;5051961;28;20083;-63
2023/06/01 06:42:35;;;;;;;9.40;7.85;;;;;;;;;;5050047;28;20049;-63
2023/06/01 06:45:02;;;;;;;9.57;7.80;;;;;;;;;;5032134;28;20448;-63
2023/06/01 06:47:28;;;;;;;11.40;7.78;;;;;;;;;;5032080;28;20287;-63
2023/06/01 06:49:55;;;;;;;9.65;7.22;;;;;;;;;;5032318;28;20076;-63
2023/06/01 06:52:22;;;;;;;9.20;7.23;;;;;;;;;;5032279;28;20140;-63
2023/06/01 06:54:48;;;;;;;9.10;6.88;;;;;;;;;;5031905;28;20050;-63
2023/06/01 06:57:15;;;;;;;8.27;7.07;;;;;;;;;;5032251;28;20075;-63
2023/06/01 06:59:41;;;;;;;11.40;7.22;;;;;;;;;;5031235;28;20510;-65
2023/06/01 07:02:08;;;;;;;7.68;6.93;;;;;;;;;;5031805;28;20046;-63
2023/06/01 07:04:34;;;;;;;8.13;6.75;;;;;;;;;;5037026;28;20045;-64
2023/06/01 07:07:03;;;;;;;9.95;6.88;;;;;;;;;;5051914;28;20128;-63
2023/06/01 07:09:30;;;;;;;9.40;7.22;;;;;;;;;;5047756;28;20045;-62
2023/06/01 07:11:56;;;;;;;9.80;6.77;;;;;;;;;;5040467;28;20049;-63
2023/06/01 07:14:23;;;;;;;8.40;7.45;;;;;;;;;;5051422;28;20052;-65
2023/06/01 07:16:50;;;;;;;7.55;6.85;;;;;;;;;;5051748;28;20049;-62
2023/06/01 07:19:17;;;;;;;7.70;6.80;;;;;;;;;;5051604;28;20167;-62
2023/06/01 07:21:43;;;;;;;9.82;7.22;;;;;;;;;;5040642;28;20041;-63
2023/06/01 07:24:10;;;;;;;8.80;6.40;;;;;;;;;;5047381;28;20099;-63
2023/06/01 07:26:37;;;;;;;8.10;6.82;;;;;;;;;;5033310;28;20417;-62
2023/06/01 07:29:03;;;;;;;8.32;6.95;;;;;;;;;;5031163;28;20451;-62
2023/06/01 07:31:31;;;;;;;7.30;6.60;;;;;;;;;;5029569;28;20049;-64
2023/06/01 07:33:58;;;;;;;10.93;6.78;;;;;;;;;;5032706;28;20052;-63
2023/06/01 07:36:26;;;;;;;9.30;7.13;;;;;;;;;;5030971;28;20049;-62
2023/06/01 07:38:52;;;;;;;;;;;;;;;;;;5033029;28;20059;-63
2023/06/01 07:41:19;;;;;;;7.77;6.80;;;;;;;;;;5050844;28;19924;-63
2023/06/01 07:43:45;;;;;;;9.65;6.40;;;;;;;;;;5050736;28;20057;-63
2023/06/01 07:46:12;;;;;;;6.95;6.25;;;;;;;;;;5049299;28;20056;-63
2023/06/01 07:48:39;;;;;;;10.20;6.60;;;;;;;;;;5050767;28;20552;-63
2023/06/01 07:51:06;;;;;;;7.95;6.53;;;;;;;;;;5050779;28;20140;-63
2023/06/01 07:53:33;;;;;;;;;;;;;;;;;;5044166;28;20552;-63
2023/06/01 07:55:59;;;;;;;6.03;5.50;;;;;;;;;;5036301;28;20426;-63
2023/06/01 07:58:27;;;;;;;8.30;5.60;;;;;;;;;;5050727;28;20497;-63
2023/06/01 08:00:53;;;;;;;11.10;6.50;;;;;;;;;;5030842;28;20061;-62
2023/06/01 08:03:21;;;;;;;9.18;6.28;;;;;;;;;;5047495;28;20523;-63
2023/06/01 08:05:48;;;;;;;8.50;6.20;;;;;;;;;;5050490;28;20084;-63
2023/06/01 08:08:15;;;;;;;6.70;5.63;;;;;;;;;;5050696;28;20511;-62
2023/06/01 08:10:42;;;;;;;7.43;5.97;;;;;;;;;;5050639;28;20087;-62
2023/06/01 08:13:08;;;;;;;10.07;7.30;;;;;;;;;;5032754;28;20072;-63
2023/06/01 08:15:36;;;;;;;6.65;5.95;;;;;;;;;;5048254;28;20052;-63
2023/06/01 08:18:04;;;;;;;9.27;6.68;;;;;;;;;;5049747;28;20076;-63
2023/06/01 08:20:31;;;;;;;10.40;6.85;;;;;;;;;;5037124;28;20119;-62
2023/06/01 08:22:57;;;;;;;8.13;7.07;;;;;;;;;;5050906;28;20458;-62
2023/06/01 08:25:23;;;;;;;8.50;6.60;;;;;;;;;;5054683;28;20064;-62
2023/06/01 08:27:50;;;;;;;10.07;6.85;;;;;;;;;;5054992;28;20048;-63
2023/06/01 08:30:16;;;;;;;10.82;7.95;;;;;;;;;;5054939;28;20045;-62
2023/06/01 08:32:43;;;;;;;9.70;8.45;;;;;;;;;;5054896;28;20052;-62
2023/06/01 08:35:10;;;;;;;9.80;8.80;;;;;;;;;;5044704;28;20053;-63
2023/06/01 08:37:36;;;;;;;12.27;9.43;;;;;;;;;;5046663;28;20045;-63
2023/06/01 08:40:08;;;;;;;10.02;9.02;;;;;;;;;;5053022;28;20095;-63
2023/06/01 08:42:41;;;;;;;9.38;8.45;;;;;;;;;;5052889;28;20053;-63
2023/06/01 08:45:07;;;;;;;10.43;9.38;;;;;;;;;;5054583;28;20538;-63
2023/06/01 08:47:35;;;;;;;11.48;8.82;;;;;;;;;;5054397;28;20061;-63
2023/06/01 08:50:02;;;;;;;10.27;8.27;;;;;;;;;;5054131;28;20080;-63
2023/06/01 08:52:31;;;;;;;11.57;8.73;;;;;;;;;;5054292;28;20059;-63
2023/06/01 08:54:59;;;;;;;10.80;9.57;;;;;;;;;;5054062;28;20512;-62
2023/06/01 08:57:26;;;;;;;10.80;9.15;;;;;;;;;;5054405;28;20041;-63
2023/06/01 08:59:52;;;;;;;11.53;10.23;;;;;;;;;;5053975;28;20595;-63
2023/06/01 09:02:19;;;;;;;11.50;9.30;;;;;;;;;;5054045;28;20045;-63
2023/06/01 09:04:45;;;;;;;11.57;9.30;;;;;;;;;;5053991;28;20053;-63
2023/06/01 09:07:13;;;;;;;9.23;8.38;;;;;;;;;;5053903;28;20041;-63
2023/06/01 09:09:39;;;;;;;;;;;;;;;;;;5054500;28;20049;-63
2023/06/01 09:12:25;;;;;;;10.07;7.40;;;;;;;;;;5054064;28;19927;-63
2023/06/01 09:15:12;;;;;;;9.68;8.65;;;;;;;;;;5053961;28;20408;-63
2023/06/01 09:17:39;;;;;;;9.75;8.70;;;;;;;;;;5053071;28;20041;-63
2023/06/01 09:20:06;;;;;;;7.93;7.18;;;;;;;;;;5053933;28;20052;-63
2023/06/01 09:22:40;;;;;;;10.27;7.63;;;;;;;;;;5053868;28;20103;-63
2023/06/01 09:25:07;;;;;;;8.57;7.75;;;;;;;;;;5053688;28;20060;-63
2023/06/01 09:27:41;;;;;;;8.55;7.75;;;;;;;;;;5053386;28;20045;-63
2023/06/01 09:30:08;;;;;;;8.05;7.28;;;;;;;;;;5053895;28;20048;-63
2023/06/01 09:32:34;;;;;;;8.45;7.57;;;;;;;;;;5053948;28;20045;-63
2023/06/01 09:35:01;;;;;;;9.45;6.40;;;;;;;;;;5052778;28;20059;-63
2023/06/01 09:37:27;;;;;;;7.80;7.00;;;;;;;;;;5053384;28;20562;-63
2023/06/01 09:39:54;;;;;;;7.28;6.65;;;;;;;;;;5053344;28;20590;-63
2023/06/01 09:42:33;;;;;;;6.88;6.18;;;;;;;;;;5053267;28;20041;-63
2023/06/01 09:45:13;;;;;;;7.43;6.05;;;;;;;;;;5053295;28;20535;-63
2023/06/01 09:47:40;;;;;;;7.38;5.70;;;;;;;;;;5053272;28;20057;-63
2023/06/01 09:50:07;;;;;;;7.05;6.32;;;;;;;;;;5053482;28;20048;-63
2023/06/01 09:52:33;;;;;;;8.67;6.23;;;;;;;;;;5053255;28;20061;-63
2023/06/01 09:55:05;;;;;;;6.55;6.05;;;;;;;;;;5052976;28;20302;-63
2023/06/01 09:57:31;;;;;;;6.45;5.85;;;;;;;;;;5053161;28;20404;-63
2023/06/01 10:00:00;;;;;;;5.30;4.80;;;;;;;;;;5052894;28;20049;-63
2023/06/01 10:02:29;;;;;;;5.28;4.75;;;;;;;;;;5053318;28;20115;-63
2023/06/01 10:04:58;;;;;;;5.85;5.25;;;;;;;;;;5053196;28;20139;-63
2023/06/01 10:07:26;;;;;;;7.57;5.07;;;;;;;;;;5052687;28;20080;-63
2023/06/01 10:09:52;;;;;;;;;;;;;;;;;;5053482;28;20094;-63
2023/06/01 10:12:19;;;;;;;6.00;4.95;;;;;;;;;;5049875;28;19943;-63
2023/06/01 10:14:46;;;;;;;6.85;5.25;;;;;;;;;;5043413;28;20052;-63
2023/06/01 10:17:14;;;;;;;6.50;4.72;;;;;;;;;;5028390;28;20041;-63
2023/06/01 10:19:41;;;;;;;6.55;5.90;;;;;;;;;;5052049;28;20049;-63
2023/06/01 10:22:08;;;;;;;8.15;6.57;;;;;;;;;;5052929;28;20055;-63
2023/06/01 10:24:40;;;;;;;6.30;5.60;;;;;;;;;;5052894;28;20056;-63
2023/06/01 10:27:07;;;;;;;5.68;5.15;;;;;;;;;;5052516;28;20456;-63
2023/06/01 10:29:34;;;;;;;5.80;5.40;;;;;;;;;;5052432;28;20458;-63
2023/06/01 10:32:01;;;;;;;6.63;5.40;;;;;;;;;;5052638;28;20293;-63
2023/06/01 10:34:42;;;;;;;6.35;5.60;;;;;;;;;;5052182;28;20381;-63
2023/06/01 10:37:08;;;;;;;6.07;5.47;;;;;;;;;;5052237;28;20049;-63
2023/06/01 10:39:35;;;;;;;6.38;5.88;;;;;;;;;;5052235;28;20056;-63
2023/06/01 10:42:12;;;;;;;6.93;6.22;;;;;;;;;;5052131;28;20045;-63
2023/06/01 10:44:38;;;;;;;7.50;6.75;;;;;;;;;;5052030;28;20056;-63
2023/06/01 10:47:05;;;;;;;8.13;7.40;;;;;;;;;;5052403;28;20088;-63
2023/06/01 10:49:47;;;;;;;6.45;5.72;;;;;;;;;;5052039;28;20056;-63
2023/06/01 10:52:26;;;;;;;7.80;6.50;;;;;;;;;;5052018;28;20087;-64
2023/06/01 10:55:13;;;;;;;5.95;5.45;;;;;;;;;;5052131;28;20111;-64
2023/06/01 10:57:40;;;;;;;6.53;5.93;;;;;;;;;;5051350;28;20223;-63
2023/06/01 11:00:16;;;;;;;6.80;6.20;;;;;;;;;;5051720;28;20049;-63
2023/06/01 11:02:53;;;;;;;7.38;6.45;;;;;;;;;;5051905;28;20049;-63
2023/06/01 11:05:38;;;;;;;7.60;6.90;;;;;;;;;;5052142;28;20056;-63
2023/06/01 11:08:05;;;;;;;6.57;6.03;;;;;;;;;;5051862;28;20562;-64
2023/06/01 11:10:50;;;;;;;7.72;7.03;;;;;;;;;;5051828;28;20052;-63
2023/06/01 11:13:21;;;;;;;7.20;6.57;;;;;;;;;;5052228;28;20071;-64
2023/06/01 11:16:03;;;;;;;7.45;6.75;;;;;;;;;;5051506;28;20128;-64
2023/06/01 11:19:00;;;;;;;7.63;7.03;;;;;;;;;;5051709;28;20083;-64
2023/06/01 11:21:28;;;;;;;7.68;7.07;;;;;;;;;;5051901;28;20068;-64
2023/06/01 11:23:56;;;;;;;8.85;7.97;;;;;;;;;;5051477;28;20099;-64
2023/06/01 11:26:30;;;;;;;8.65;8.00;;;;;;;;;;5051574;28;20208;-64
2023/06/01 11:29:07;;;;;;;8.27;7.57;;;;;;;;;;5051706;28;20057;-64
2023/06/01 11:31:36;;;;;;;8.57;7.97;;;;;;;;;;5051576;28;20053;-64
2023/06/01 11:34:03;;;;;;;7.55;6.95;;;;;;;;;;5051595;28;20064;-64
2023/06/01 11:36:36;;;;;;;6.95;6.40;;;;;;;;;;5051359;28;20045;-64
2023/06/01 11:39:03;;;;;;;7.53;6.40;;;;;;;;;;5051652;28;20511;-64
2023/06/01 11:41:45;;;;;;;6.78;6.18;;;;;;;;;;5051806;28;20107;-64
2023/06/01 11:44:12;;;;;;;6.55;6.05;;;;;;;;;;5051448;28;20049;-65
2023/06/01 11:46:50;;;;;;;6.85;6.28;;;;;;;;;;5051346;28;20045;-64
2023/06/01 11:49:16;;;;;;;6.20;5.68;;;;;;;;;;5051274;28;20822;-64
2023/06/01 11:51:43;;;;;;;5.07;4.75;;;;;;;;;;5051421;28;20049;-64
2023/06/01 11:54:09;;;;;;;5.40;4.95;;;;;;;;;;5051269;28;20045;-64
2023/06/01 11:56:39;;;;;;;5.10;4.75;;;;;;;;;;5051507;28;20090;-64
2023/06/01 11:59:08;;;;;;;5.10;4.70;;;;;;;;;;5055213;28;20087;-65
2023/06/01 12:01:44;;;;;;;5.55;5.05;;;;;;;;;;5054882;28;20207;-64
2023/06/01 12:04:14;;;;;;;5.15;4.75;;;;;;;;;;5055122;28;20064;-64
2023/06/01 12:06:41;;;;;;;6.03;5.53;;;;;;;;;;5055184;28;20041;-64
2023/06/01 12:09:08;;;;;;;5.63;5.05;;;;;;;;;;5055374;28;20409;-64
2023/06/01 12:11:34;;;;;;;6.20;5.70;;;;;;;;;;5054983;28;20045;-64
2023/06/01 12:14:01;;;;;;;6.72;6.15;;;;;;;;;;5055337;28;20045;-65
2023/06/01 12:16:48;;;;;;;5.90;5.40;;;;;;;;;;5055314;28;20045;-64
2023/06/01 12:19:15;;;;;;;5.68;5.28;;;;;;;;;;5054997;28;20052;-64
2023/06/01 12:21:50;;;;;;;6.10;5.55;;;;;;;;;;5054828;28;20045;-64
2023/06/01 12:24:46;;;;;;;6.80;6.22;;;;;;;;;;5054925;28;20045;-64
2023/06/01 12:27:19;;;;;;;6.95;6.32;;;;;;;;;;5053997;28;20052;-64
2023/06/01 12:29:47;;;;;;;6.88;6.13;;;;;;;;;;5054823;28;20124;-64
2023/06/01 12:32:16;;;;;;;7.00;6.40;;;;;;;;;;5054726;28;20853;-64
2023/06/01 12:34:47;;;;;;;6.68;6.07;;;;;;;;;;5054582;28;20049;-64
2023/06/01 12:37:15;;;;;;;7.05;6.28;;;;;;;;;;5054532;28;20053;-64
2023/06/01 12:39:42;;;;;;;7.93;7.13;;;;;;;;;;5054466;28;20072;-64
2023/06/01 12:42:10;;;;;;;7.47;6.88;;;;;;;;;;5054613;28;20056;-64
2023/06/01 12:44:37;;;;;;;7.63;7.03;;;;;;;;;;5054441;28;20056;-64
2023/06/01 12:47:06;;;;;;;8.23;7.53;;;;;;;;;;5054463;28;20055;-64
2023/06/01 12:49:32;;;;;;;8.05;7.45;;;;;;;;;;5054194;28;20053;-64
2023/06/01 12:51:59;;;;;;;7.13;6.55;;;;;;;;;;5054459;28;20052;-64
2023/06/01 12:54:25;;;;;;;7.53;6.97;;;;;;;;;;5054361;28;20049;-65
2023/06/01 12:56:52;;;;;;;7.72;7.03;;;;;;;;;;5054153;28;20047;-65
2023/06/01 12:59:18;;;;;;;7.40;6.70;;;;;;;;;;5053996;28;20393;-64
2023/06/01 13:01:45;;;;;;;7.43;6.72;;;;;;;;;;5054335;28;20060;-65
2023/06/01 13:04:11;;;;;;;6.38;5.88;;;;;;;;;;5053965;28;20045;-64
2023/06/01 13:06:39;;;;;;;7.80;7.07;;;;;;;;;;5054054;28;20048;-64
2023/06/01 13:09:06;;;;;;;6.43;6.00;;;;;;;;;;5052899;28;20075;-65
2023/06/01 13:11:33;;;;;;;6.68;6.00;;;;;;;;;;5054295;28;20056;-64
2023/06/01 13:13:59;;;;;;;5.80;5.30;;;;;;;;;;5053863;28;20048;-65
2023/06/01 13:16:27;;;;;;;6.65;6.05;;;;;;;;;;5053682;28;20512;-65
2023/06/01 13:18:54;;;;;;;6.53;5.95;;;;;;;;;;5053957;28;20180;-65
2023/06/01 13:21:20;;;;;;;6.18;5.68;;;;;;;;;;5053730;28;20056;-64
2023/06/01 13:23:48;;;;;;;6.70;6.18;;;;;;;;;;5051438;28;20057;-64
2023/06/01 13:26:14;;;;;;;6.78;6.15;;;;;;;;;;5042240;28;20057;-64
2023/06/01 13:28:41;;;;;;;6.90;6.30;;;;;;;;;;5039655;28;20100;-64
2023/06/01 13:31:07;;;;;;;6.40;5.90;;;;;;;;;;5053653;28;20056;-64
2023/06/01 13:33:34;;;;;;;6.85;6.35;;;;;;;;;;5053490;28;20048;-64
2023/06/01 13:36:00;;;;;;;6.82;6.32;;;;;;;;;;5053634;28;20385;-64
2023/06/01 13:38:27;;;;;;;6.80;6.30;;;;;;;;;;5053257;28;20048;-64
2023/06/01 13:40:54;;;;;;;8.80;8.00;;;;;;;;;;5053420;28;20102;-65
2023/06/01 13:43:20;;;;;;;7.88;7.35;;;;;;;;;;5053372;28;20515;-64
2023/06/01 13:45:46;;;;;;;7.78;7.18;;;;;;;;;;5053186;28;20083;-64
2023/06/01 13:48:14;;;;;;;9.65;8.68;;;;;;;;;;5053417;28;20055;-65
2023/06/01 13:50:45;;;;;;;9.80;9.00;;;;;;;;;;5053341;28;20053;-64
2023/06/01 13:53:11;;;;;;;9.27;8.57;;;;;;;;;;5053444;28;20056;-64
2023/06/01 13:55:39;;;;;;;9.45;8.70;;;;;;;;;;5052939;28;20049;-64
2023/06/01 13:58:05;;;;;;;9.70;8.90;;;;;;;;;;5053185;28;20083;-64
2023/06/01 14:00:32;;;;;;;8.90;8.30;;;;;;;;;;5052969;28;20053;-64
2023/06/01 14:02:58;;;;;;;9.13;8.43;;;;;;;;;;5053038;28;20053;-64
2023/06/01 14:05:25;;;;;;;9.25;8.55;;;;;;;;;;5052784;28;20049;-64
2023/06/01 14:08:10;;;;;;;;;;;;;;;;;;5053299;28;20126;-64
2023/06/01 14:10:36;;;;;;;9.70;8.82;;;;;;;;;;5053294;28;19920;-64
2023/06/01 14:13:03;;;;;;;9.48;8.68;;;;;;;;;;5052635;28;20048;-64
2023/06/01 14:15:30;;;;;;;9.00;8.32;;;;;;;;;;5052929;28;20473;-64
2023/06/01 14:17:57;;;;;;;8.98;8.18;;;;;;;;;;5052697;28;20045;-64
2023/06/01 14:20:23;;;;;;;8.82;8.13;;;;;;;;;;5052367;28;20052;-64
2023/06/01 14:22:50;;;;;;;9.25;8.52;;;;;;;;;;5052811;28;20060;-64
2023/06/01 14:25:16;;;;;;;9.15;8.40;;;;;;;;;;5052363;28;20064;-64
2023/06/01 14:27:43;;;;;;;8.52;7.78;;;;;;;;;;5052648;28;20052;-64
2023/06/01 14:30:09;;;;;;;10.27;9.38;;;;;;;;;;5052630;28;20053;-64
2023/06/01 14:32:36;;;;;;;9.23;8.43;;;;;;;;;;5052375;28;20053;-64
2023/06/01 14:35:03;;;;;;;9.13;8.32;;;;;;;;;;5052359;28;20049;-64
2023/06/01 14:37:29;;;;;;;9.05;8.30;;;;;;;;;;5052509;28;20040;-64
2023/06/01 14:40:13;;;;;;;8.18;7.47;;;;;;;;;;5052234;28;20049;-64
2023/06/01 14:42:40;;;;;;;8.32;7.63;;;;;;;;;;5052308;28;20041;-64
2023/06/01 14:45:07;;;;;;;8.25;7.60;;;;;;;;;;5052107;28;20136;-64
2023/06/01 14:47:33;;;;;;;8.27;7.60;;;;;;;;;;5052273;28;20451;-64
2023/06/01 14:50:00;;;;;;;8.68;8.07;;;;;;;;;;5052001;28;20535;-65